Marble Falls' Hourly Summary for Saturday, March 18, 2017
Hour Temp
(f)
RH
(%)
Solar Rad.
(MJ/m2)
Rainfall
(in)
Wind
(mph)
3/18/2017 12:00 AM 69 97 0 0 3.89
3/18/2017 1:00 AM 68 97 0 0 3.89
3/18/2017 2:00 AM 67 99 0 0 6.09
3/18/2017 3:00 AM 67 99 0 0 6.09
3/18/2017 4:00 AM 66 99 0 0 2.91
3/18/2017 5:00 AM 65 100 0 0 2.25
3/18/2017 6:00 AM 65 100 0 0 1.19
3/18/2017 7:00 AM 63 100 0 0 1.19
3/18/2017 8:00 AM 64 100 0.06 0 1.14
3/18/2017 9:00 AM 67 99 0.2 0 1.97
3/18/2017 10:00 AM 68 99 0.47 0 2.57
3/18/2017 11:00 AM 70 94 0.84 0 4.33
3/18/2017 12:00 PM 70 84 0.87 0 4.78
3/18/2017 1:00 PM 73 79 1.45 0 6.46
3/18/2017 2:00 PM 74 65 1.45 0 6.86
3/18/2017 3:00 PM 76 61 1.26 0 6.86
3/18/2017 4:00 PM 77 53 1.26 0 6.15
3/18/2017 5:00 PM 78 52 0.96 0 6.15
3/18/2017 6:00 PM 80 47 0.96 0 5.1
3/18/2017 7:00 PM 80 45 0.93 0 4.79
3/18/2017 8:00 PM 77 59 0.17 0 3.4
3/18/2017 9:00 PM 72 71 0 0 3.64
3/18/2017 10:00 PM 69 77 0 0 3.64
3/18/2017 11:00 PM 68 77 0 0 6.03
Data Summary 70 81 10.88 0.00 4.22